sensor_id;sensor_type;location;lat;lon;timestamp;P1;durP1;ratioP1;P2;durP2;ratioP2
7205;SDS011;3644;53.480;10.004;2023-04-03T00:00:07;3.13;;;2.27;;
7205;SDS011;3644;53.480;10.004;2023-04-03T00:02:33;4.93;;;3.37;;
7205;SDS011;3644;53.480;10.004;2023-04-03T00:04:59;8.47;;;2.50;;
7205;SDS011;3644;53.480;10.004;2023-04-03T00:07:24;6.57;;;2.80;;
7205;SDS011;3644;53.480;10.004;2023-04-03T00:09:50;11.90;;;3.10;;
7205;SDS011;3644;53.480;10.004;2023-04-03T00:12:15;14.90;;;3.10;;
7205;SDS011;3644;53.480;10.004;2023-04-03T00:14:41;14.30;;;3.87;;
7205;SDS011;3644;53.480;10.004;2023-04-03T00:17:06;8.20;;;3.10;;
7205;SDS011;3644;53.480;10.004;2023-04-03T00:19:32;11.27;;;3.13;;
7205;SDS011;3644;53.480;10.004;2023-04-03T00:21:57;6.80;;;2.80;;
7205;SDS011;3644;53.480;10.004;2023-04-03T00:24:23;3.80;;;2.53;;
7205;SDS011;3644;53.480;10.004;2023-04-03T00:26:49;9.00;;;3.43;;
7205;SDS011;3644;53.480;10.004;2023-04-03T00:29:14;5.60;;;2.53;;
7205;SDS011;3644;53.480;10.004;2023-04-03T00:31:40;8.57;;;2.57;;
7205;SDS011;3644;53.480;10.004;2023-04-03T00:34:05;5.60;;;3.00;;
7205;SDS011;3644;53.480;10.004;2023-04-03T00:36:31;2.70;;;2.50;;
7205;SDS011;3644;53.480;10.004;2023-04-03T00:38:56;5.03;;;2.77;;
7205;SDS011;3644;53.480;10.004;2023-04-03T00:41:22;9.40;;;2.90;;
7205;SDS011;3644;53.480;10.004;2023-04-03T00:43:47;13.77;;;3.00;;
7205;SDS011;3644;53.480;10.004;2023-04-03T00:46:13;10.80;;;3.87;;
7205;SDS011;3644;53.480;10.004;2023-04-03T00:48:39;5.27;;;2.13;;
7205;SDS011;3644;53.480;10.004;2023-04-03T00:51:09;8.53;;;2.60;;
7205;SDS011;3644;53.480;10.004;2023-04-03T00:53:40;4.80;;;3.23;;
7205;SDS011;3644;53.480;10.004;2023-04-03T00:56:10;5.00;;;2.60;;
7205;SDS011;3644;53.480;10.004;2023-04-03T00:58:42;4.37;;;2.33;;
7205;SDS011;3644;53.480;10.004;2023-04-03T01:01:16;4.73;;;2.23;;
7205;SDS011;3644;53.480;10.004;2023-04-03T01:03:46;10.97;;;2.53;;
7205;SDS011;3644;53.480;10.004;2023-04-03T01:06:12;4.90;;;2.10;;
7205;SDS011;3644;53.480;10.004;2023-04-03T01:08:41;4.93;;;2.47;;
7205;SDS011;3644;53.480;10.004;2023-04-03T01:11:06;2.87;;;2.60;;
7205;SDS011;3644;53.480;10.004;2023-04-03T01:13:32;3.33;;;2.20;;
7205;SDS011;3644;53.480;10.004;2023-04-03T01:16:04;5.40;;;2.63;;
7205;SDS011;3644;53.480;10.004;2023-04-03T01:18:31;7.73;;;2.87;;
7205;SDS011;3644;53.480;10.004;2023-04-03T01:21:04;4.17;;;2.70;;
7205;SDS011;3644;53.480;10.004;2023-04-03T01:26:09;2.83;;;2.43;;
7205;SDS011;3644;53.480;10.004;2023-04-03T01:28:36;4.70;;;2.73;;
7205;SDS011;3644;53.480;10.004;2023-04-03T01:31:08;9.07;;;3.10;;
7205;SDS011;3644;53.480;10.004;2023-04-03T01:33:47;9.23;;;3.10;;
7205;SDS011;3644;53.480;10.004;2023-04-03T01:36:16;7.00;;;3.60;;
7205;SDS011;3644;53.480;10.004;2023-04-03T01:38:44;7.83;;;3.23;;
7205;SDS011;3644;53.480;10.004;2023-04-03T01:41:10;3.07;;;2.60;;
7205;SDS011;3644;53.480;10.004;2023-04-03T01:43:35;5.53;;;2.40;;
7205;SDS011;3644;53.480;10.004;2023-04-03T01:46:01;6.87;;;2.53;;
7205;SDS011;3644;53.480;10.004;2023-04-03T01:48:26;7.63;;;2.57;;
7205;SDS011;3644;53.480;10.004;2023-04-03T01:50:52;7.53;;;3.43;;
7205;SDS011;3644;53.480;10.004;2023-04-03T01:53:18;7.63;;;2.70;;
7205;SDS011;3644;53.480;10.004;2023-04-03T01:55:44;14.43;;;3.07;;
7205;SDS011;3644;53.480;10.004;2023-04-03T01:58:10;11.23;;;2.73;;
7205;SDS011;3644;53.480;10.004;2023-04-03T02:00:35;6.77;;;3.33;;
7205;SDS011;3644;53.480;10.004;2023-04-03T02:03:01;7.37;;;2.70;;
7205;SDS011;3644;53.480;10.004;2023-04-03T02:05:27;5.40;;;2.40;;
7205;SDS011;3644;53.480;10.004;2023-04-03T02:07:53;9.83;;;3.93;;
7205;SDS011;3644;53.480;10.004;2023-04-03T02:10:18;5.57;;;3.20;;
7205;SDS011;3644;53.480;10.004;2023-04-03T02:12:44;9.50;;;3.37;;
7205;SDS011;3644;53.480;10.004;2023-04-03T02:15:10;6.90;;;2.40;;
7205;SDS011;3644;53.480;10.004;2023-04-03T02:17:35;4.53;;;2.50;;
7205;SDS011;3644;53.480;10.004;2023-04-03T02:20:01;4.30;;;3.30;;
7205;SDS011;3644;53.480;10.004;2023-04-03T02:22:28;3.80;;;2.53;;
7205;SDS011;3644;53.480;10.004;2023-04-03T02:24:53;7.17;;;2.40;;
7205;SDS011;3644;53.480;10.004;2023-04-03T02:27:19;10.27;;;2.60;;
7205;SDS011;3644;53.480;10.004;2023-04-03T02:29:45;7.33;;;2.73;;
7205;SDS011;3644;53.480;10.004;2023-04-03T02:32:10;5.00;;;2.60;;
7205;SDS011;3644;53.480;10.004;2023-04-03T02:34:36;13.23;;;5.27;;
7205;SDS011;3644;53.480;10.004;2023-04-03T02:37:01;12.53;;;3.13;;
7205;SDS011;3644;53.480;10.004;2023-04-03T02:39:27;4.60;;;2.40;;
7205;SDS011;3644;53.480;10.004;2023-04-03T02:41:52;4.80;;;2.77;;
7205;SDS011;3644;53.480;10.004;2023-04-03T02:44:18;12.27;;;2.70;;
7205;SDS011;3644;53.480;10.004;2023-04-03T02:46:44;3.60;;;2.63;;
7205;SDS011;3644;53.480;10.004;2023-04-03T02:49:09;8.73;;;2.90;;
7205;SDS011;3644;53.480;10.004;2023-04-03T02:51:35;5.90;;;2.17;;
7205;SDS011;3644;53.480;10.004;2023-04-03T02:54:00;6.30;;;2.77;;
7205;SDS011;3644;53.480;10.004;2023-04-03T02:56:26;6.20;;;2.20;;
7205;SDS011;3644;53.480;10.004;2023-04-03T02:58:52;5.93;;;2.33;;
7205;SDS011;3644;53.480;10.004;2023-04-03T03:01:17;3.30;;;2.30;;
7205;SDS011;3644;53.480;10.004;2023-04-03T03:03:43;10.17;;;2.60;;
7205;SDS011;3644;53.480;10.004;2023-04-03T03:06:09;5.73;;;3.40;;
7205;SDS011;3644;53.480;10.004;2023-04-03T03:08:37;6.23;;;2.87;;
7205;SDS011;3644;53.480;10.004;2023-04-03T03:11:03;6.27;;;3.00;;
7205;SDS011;3644;53.480;10.004;2023-04-03T03:13:30;15.03;;;3.17;;
7205;SDS011;3644;53.480;10.004;2023-04-03T03:15:56;7.37;;;3.13;;
7205;SDS011;3644;53.480;10.004;2023-04-03T03:18:22;4.23;;;2.70;;
7205;SDS011;3644;53.480;10.004;2023-04-03T03:20:51;10.60;;;2.90;;
7205;SDS011;3644;53.480;10.004;2023-04-03T03:23:18;4.10;;;2.80;;
7205;SDS011;3644;53.480;10.004;2023-04-03T03:25:44;8.40;;;2.20;;
7205;SDS011;3644;53.480;10.004;2023-04-03T03:28:09;4.23;;;2.80;;
7205;SDS011;3644;53.480;10.004;2023-04-03T03:30:36;4.83;;;2.37;;
7205;SDS011;3644;53.480;10.004;2023-04-03T03:33:02;3.70;;;3.37;;
7205;SDS011;3644;53.480;10.004;2023-04-03T03:35:28;5.07;;;3.13;;
7205;SDS011;3644;53.480;10.004;2023-04-03T03:37:53;5.20;;;3.40;;
7205;SDS011;3644;53.480;10.004;2023-04-03T03:40:19;10.73;;;3.60;;
7205;SDS011;3644;53.480;10.004;2023-04-03T03:42:44;7.57;;;3.63;;
7205;SDS011;3644;53.480;10.004;2023-04-03T03:45:10;6.23;;;3.50;;
7205;SDS011;3644;53.480;10.004;2023-04-03T03:47:35;11.93;;;4.17;;
7205;SDS011;3644;53.480;10.004;2023-04-03T03:50:01;4.53;;;3.70;;
7205;SDS011;3644;53.480;10.004;2023-04-03T03:52:27;17.17;;;4.80;;
7205;SDS011;3644;53.480;10.004;2023-04-03T03:54:53;4.97;;;2.97;;
7205;SDS011;3644;53.480;10.004;2023-04-03T03:57:18;9.00;;;3.57;;
7205;SDS011;3644;53.480;10.004;2023-04-03T03:59:44;5.20;;;3.07;;
7205;SDS011;3644;53.480;10.004;2023-04-03T04:02:10;8.77;;;3.70;;
7205;SDS011;3644;53.480;10.004;2023-04-03T04:04:36;7.77;;;3.53;;
7205;SDS011;3644;53.480;10.004;2023-04-03T04:07:02;4.63;;;3.03;;
7205;SDS011;3644;53.480;10.004;2023-04-03T04:09:28;8.43;;;4.10;;
7205;SDS011;3644;53.480;10.004;2023-04-03T04:11:53;4.43;;;2.30;;
7205;SDS011;3644;53.480;10.004;2023-04-03T04:14:19;12.03;;;3.17;;
7205;SDS011;3644;53.480;10.004;2023-04-03T04:16:47;11.43;;;3.57;;
7205;SDS011;3644;53.480;10.004;2023-04-03T04:19:13;6.30;;;3.33;;
7205;SDS011;3644;53.480;10.004;2023-04-03T04:21:39;6.70;;;3.90;;
7205;SDS011;3644;53.480;10.004;2023-04-03T04:24:05;11.40;;;4.00;;
7205;SDS011;3644;53.480;10.004;2023-04-03T04:26:31;6.67;;;3.43;;
7205;SDS011;3644;53.480;10.004;2023-04-03T04:28:56;6.17;;;3.83;;
7205;SDS011;3644;53.480;10.004;2023-04-03T04:31:22;16.37;;;4.07;;
7205;SDS011;3644;53.480;10.004;2023-04-03T04:33:47;17.23;;;4.80;;
7205;SDS011;3644;53.480;10.004;2023-04-03T04:36:13;8.97;;;3.70;;
7205;SDS011;3644;53.480;10.004;2023-04-03T04:38:39;14.03;;;4.50;;
7205;SDS011;3644;53.480;10.004;2023-04-03T04:41:05;16.20;;;4.27;;
7205;SDS011;3644;53.480;10.004;2023-04-03T04:43:31;7.20;;;4.10;;
7205;SDS011;3644;53.480;10.004;2023-04-03T04:46:00;9.87;;;3.90;;
7205;SDS011;3644;53.480;10.004;2023-04-03T04:48:29;10.27;;;2.93;;
7205;SDS011;3644;53.480;10.004;2023-04-03T04:50:55;11.80;;;3.70;;
7205;SDS011;3644;53.480;10.004;2023-04-03T04:53:21;12.87;;;4.40;;
7205;SDS011;3644;53.480;10.004;2023-04-03T04:55:46;7.23;;;4.27;;
7205;SDS011;3644;53.480;10.004;2023-04-03T04:58:12;4.60;;;3.63;;
7205;SDS011;3644;53.480;10.004;2023-04-03T05:00:37;8.97;;;3.93;;
7205;SDS011;3644;53.480;10.004;2023-04-03T05:03:03;9.83;;;4.63;;
7205;SDS011;3644;53.480;10.004;2023-04-03T05:05:28;8.00;;;3.80;;
7205;SDS011;3644;53.480;10.004;2023-04-03T05:07:54;23.03;;;4.63;;
7205;SDS011;3644;53.480;10.004;2023-04-03T05:10:19;8.90;;;4.53;;
7205;SDS011;3644;53.480;10.004;2023-04-03T05:12:45;11.70;;;3.90;;
7205;SDS011;3644;53.480;10.004;2023-04-03T05:15:11;15.30;;;4.60;;
7205;SDS011;3644;53.480;10.004;2023-04-03T05:17:36;8.63;;;4.50;;
7205;SDS011;3644;53.480;10.004;2023-04-03T05:20:02;14.50;;;4.40;;
7205;SDS011;3644;53.480;10.004;2023-04-03T05:22:29;8.87;;;4.80;;
7205;SDS011;3644;53.480;10.004;2023-04-03T05:24:55;11.10;;;4.80;;
7205;SDS011;3644;53.480;10.004;2023-04-03T05:27:20;23.60;;;4.60;;
7205;SDS011;3644;53.480;10.004;2023-04-03T05:29:48;9.67;;;4.70;;
7205;SDS011;3644;53.480;10.004;2023-04-03T05:32:13;10.07;;;4.60;;
7205;SDS011;3644;53.480;10.004;2023-04-03T05:34:39;8.93;;;4.37;;
7205;SDS011;3644;53.480;10.004;2023-04-03T05:37:05;10.23;;;6.10;;
7205;SDS011;3644;53.480;10.004;2023-04-03T05:39:30;12.67;;;6.10;;
7205;SDS011;3644;53.480;10.004;2023-04-03T05:41:56;17.80;;;5.87;;
7205;SDS011;3644;53.480;10.004;2023-04-03T05:44:22;17.90;;;5.90;;
7205;SDS011;3644;53.480;10.004;2023-04-03T05:46:48;8.03;;;4.70;;
7205;SDS011;3644;53.480;10.004;2023-04-03T05:49:13;8.80;;;4.20;;
7205;SDS011;3644;53.480;10.004;2023-04-03T05:51:39;5.67;;;3.67;;
7205;SDS011;3644;53.480;10.004;2023-04-03T05:54:08;7.50;;;3.93;;
7205;SDS011;3644;53.480;10.004;2023-04-03T05:56:40;23.00;;;3.60;;
7205;SDS011;3644;53.480;10.004;2023-04-03T05:59:06;12.30;;;3.60;;
7205;SDS011;3644;53.480;10.004;2023-04-03T06:01:32;7.33;;;3.63;;
7205;SDS011;3644;53.480;10.004;2023-04-03T06:03:59;10.47;;;3.60;;
7205;SDS011;3644;53.480;10.004;2023-04-03T06:06:24;8.80;;;4.60;;
7205;SDS011;3644;53.480;10.004;2023-04-03T06:08:50;6.03;;;3.80;;
7205;SDS011;3644;53.480;10.004;2023-04-03T06:11:16;14.93;;;4.20;;
7205;SDS011;3644;53.480;10.004;2023-04-03T06:13:41;5.77;;;2.87;;
7205;SDS011;3644;53.480;10.004;2023-04-03T06:16:08;6.70;;;3.67;;
7205;SDS011;3644;53.480;10.004;2023-04-03T06:18:39;4.30;;;3.53;;
7205;SDS011;3644;53.480;10.004;2023-04-03T06:21:04;9.97;;;4.63;;
7205;SDS011;3644;53.480;10.004;2023-04-03T06:23:32;9.70;;;4.30;;
7205;SDS011;3644;53.480;10.004;2023-04-03T06:25:58;9.00;;;4.53;;
7205;SDS011;3644;53.480;10.004;2023-04-03T06:28:23;17.57;;;5.73;;
7205;SDS011;3644;53.480;10.004;2023-04-03T06:30:49;8.97;;;5.40;;
7205;SDS011;3644;53.480;10.004;2023-04-03T06:33:14;18.23;;;3.90;;
7205;SDS011;3644;53.480;10.004;2023-04-03T06:35:40;11.27;;;3.47;;
7205;SDS011;3644;53.480;10.004;2023-04-03T06:38:05;11.57;;;4.00;;
7205;SDS011;3644;53.480;10.004;2023-04-03T06:40:34;5.60;;;3.53;;
7205;SDS011;3644;53.480;10.004;2023-04-03T06:43:00;13.00;;;3.80;;
7205;SDS011;3644;53.480;10.004;2023-04-03T06:45:26;9.13;;;3.90;;
7205;SDS011;3644;53.480;10.004;2023-04-03T06:47:52;17.23;;;3.87;;
7205;SDS011;3644;53.480;10.004;2023-04-03T06:50:18;6.03;;;3.00;;
7205;SDS011;3644;53.480;10.004;2023-04-03T06:52:43;2.23;;;1.63;;
7205;SDS011;3644;53.480;10.004;2023-04-03T06:55:09;4.20;;;3.07;;
7205;SDS011;3644;53.480;10.004;2023-04-03T06:57:35;15.60;;;2.93;;
7205;SDS011;3644;53.480;10.004;2023-04-03T07:00:02;9.43;;;3.60;;
7205;SDS011;3644;53.480;10.004;2023-04-03T07:02:29;12.60;;;2.93;;
7205;SDS011;3644;53.480;10.004;2023-04-03T07:04:54;9.17;;;3.00;;
7205;SDS011;3644;53.480;10.004;2023-04-03T07:07:20;4.00;;;2.87;;
7205;SDS011;3644;53.480;10.004;2023-04-03T07:09:46;7.60;;;2.40;;
7205;SDS011;3644;53.480;10.004;2023-04-03T07:12:12;4.73;;;3.10;;
7205;SDS011;3644;53.480;10.004;2023-04-03T07:14:38;5.73;;;2.57;;
7205;SDS011;3644;53.480;10.004;2023-04-03T07:17:04;12.47;;;2.83;;
7205;SDS011;3644;53.480;10.004;2023-04-03T07:19:29;6.30;;;2.43;;
7205;SDS011;3644;53.480;10.004;2023-04-03T07:21:56;2.40;;;2.20;;
7205;SDS011;3644;53.480;10.004;2023-04-03T07:24:21;2.50;;;2.03;;
7205;SDS011;3644;53.480;10.004;2023-04-03T07:26:50;3.57;;;2.37;;
7205;SDS011;3644;53.480;10.004;2023-04-03T07:29:16;2.60;;;2.40;;
7205;SDS011;3644;53.480;10.004;2023-04-03T07:31:42;5.03;;;1.70;;
7205;SDS011;3644;53.480;10.004;2023-04-03T07:34:09;5.97;;;2.17;;
7205;SDS011;3644;53.480;10.004;2023-04-03T07:36:35;2.77;;;1.67;;
7205;SDS011;3644;53.480;10.004;2023-04-03T07:39:01;3.17;;;2.23;;
7205;SDS011;3644;53.480;10.004;2023-04-03T07:41:26;3.70;;;1.63;;
7205;SDS011;3644;53.480;10.004;2023-04-03T07:43:53;8.73;;;2.60;;
7205;SDS011;3644;53.480;10.004;2023-04-03T07:46:19;2.57;;;2.00;;
7205;SDS011;3644;53.480;10.004;2023-04-03T07:48:45;2.23;;;2.03;;
7205;SDS011;3644;53.480;10.004;2023-04-03T07:51:11;6.70;;;2.10;;
7205;SDS011;3644;53.480;10.004;2023-04-03T07:53:37;8.33;;;2.00;;
7205;SDS011;3644;53.480;10.004;2023-04-03T07:56:03;3.87;;;1.80;;
7205;SDS011;3644;53.480;10.004;2023-04-03T07:58:29;3.67;;;2.10;;
7205;SDS011;3644;53.480;10.004;2023-04-03T08:00:54;2.93;;;1.90;;
7205;SDS011;3644;53.480;10.004;2023-04-03T08:03:21;8.53;;;2.20;;
7205;SDS011;3644;53.480;10.004;2023-04-03T08:05:48;3.00;;;1.77;;
7205;SDS011;3644;53.480;10.004;2023-04-03T08:08:15;1.53;;;1.43;;
7205;SDS011;3644;53.480;10.004;2023-04-03T08:10:43;2.90;;;1.63;;
7205;SDS011;3644;53.480;10.004;2023-04-03T08:13:12;5.07;;;2.03;;
7205;SDS011;3644;53.480;10.004;2023-04-03T08:15:38;1.73;;;1.60;;
7205;SDS011;3644;53.480;10.004;2023-04-03T08:18:04;6.57;;;1.77;;
7205;SDS011;3644;53.480;10.004;2023-04-03T08:20:29;2.13;;;1.67;;
7205;SDS011;3644;53.480;10.004;2023-04-03T08:22:55;5.97;;;2.47;;
7205;SDS011;3644;53.480;10.004;2023-04-03T08:25:21;1.70;;;1.40;;
7205;SDS011;3644;53.480;10.004;2023-04-03T08:27:46;2.20;;;1.53;;
7205;SDS011;3644;53.480;10.004;2023-04-03T08:30:12;3.23;;;1.63;;
7205;SDS011;3644;53.480;10.004;2023-04-03T08:32:38;3.33;;;1.40;;
7205;SDS011;3644;53.480;10.004;2023-04-03T08:35:04;1.80;;;1.50;;
7205;SDS011;3644;53.480;10.004;2023-04-03T08:37:30;2.90;;;1.53;;
7205;SDS011;3644;53.480;10.004;2023-04-03T08:39:55;13.20;;;2.50;;
7205;SDS011;3644;53.480;10.004;2023-04-03T08:42:33;3.50;;;1.80;;
7205;SDS011;3644;53.480;10.004;2023-04-03T08:45:10;2.73;;;1.57;;
7205;SDS011;3644;53.480;10.004;2023-04-03T08:47:47;2.40;;;1.53;;
7205;SDS011;3644;53.480;10.004;2023-04-03T08:50:30;3.00;;;1.40;;
7205;SDS011;3644;53.480;10.004;2023-04-03T08:53:01;2.63;;;1.40;;
7205;SDS011;3644;53.480;10.004;2023-04-03T08:55:29;2.63;;;1.20;;
7205;SDS011;3644;53.480;10.004;2023-04-03T08:58:05;2.90;;;1.53;;
7205;SDS011;3644;53.480;10.004;2023-04-03T09:00:34;2.70;;;1.23;;
7205;SDS011;3644;53.480;10.004;2023-04-03T09:03:11;4.87;;;1.60;;
7205;SDS011;3644;53.480;10.004;2023-04-03T09:08:13;2.23;;;1.23;;
7205;SDS011;3644;53.480;10.004;2023-04-03T09:10:40;4.30;;;1.40;;
7205;SDS011;3644;53.480;10.004;2023-04-03T09:13:15;2.77;;;1.40;;
7205;SDS011;3644;53.480;10.004;2023-04-03T09:15:57;6.87;;;2.50;;
7205;SDS011;3644;53.480;10.004;2023-04-03T09:18:28;3.37;;;1.70;;
7205;SDS011;3644;53.480;10.004;2023-04-03T09:21:07;2.87;;;1.70;;
7205;SDS011;3644;53.480;10.004;2023-04-03T09:23:50;2.93;;;1.33;;
7205;SDS011;3644;53.480;10.004;2023-04-03T09:26:24;4.47;;;1.80;;
7205;SDS011;3644;53.480;10.004;2023-04-03T09:28:54;4.93;;;1.37;;
7205;SDS011;3644;53.480;10.004;2023-04-03T09:31:24;3.77;;;2.20;;
7205;SDS011;3644;53.480;10.004;2023-04-03T09:33:57;2.03;;;1.60;;
7205;SDS011;3644;53.480;10.004;2023-04-03T09:39:13;1.90;;;1.50;;
7205;SDS011;3644;53.480;10.004;2023-04-03T09:44:31;4.60;;;1.60;;
7205;SDS011;3644;53.480;10.004;2023-04-03T09:46:59;4.33;;;1.80;;
7205;SDS011;3644;53.480;10.004;2023-04-03T09:49:26;5.60;;;2.10;;
7205;SDS011;3644;53.480;10.004;2023-04-03T09:51:52;6.77;;;2.30;;
7205;SDS011;3644;53.480;10.004;2023-04-03T09:54:35;2.30;;;2.10;;
7205;SDS011;3644;53.480;10.004;2023-04-03T09:57:06;1.83;;;1.73;;
7205;SDS011;3644;53.480;10.004;2023-04-03T09:59:34;2.60;;;2.40;;
7205;SDS011;3644;53.480;10.004;2023-04-03T10:02:04;3.60;;;1.67;;
7205;SDS011;3644;53.480;10.004;2023-04-03T10:04:56;2.70;;;2.10;;
7205;SDS011;3644;53.480;10.004;2023-04-03T10:09:59;3.87;;;2.20;;
7205;SDS011;3644;53.480;10.004;2023-04-03T10:12:47;1.10;;;1.10;;
7205;SDS011;3644;53.480;10.004;2023-04-03T10:15:14;3.63;;;1.70;;
7205;SDS011;3644;53.480;10.004;2023-04-03T10:17:49;2.17;;;1.40;;
7205;SDS011;3644;53.480;10.004;2023-04-03T10:20:31;1.77;;;1.40;;
7205;SDS011;3644;53.480;10.004;2023-04-03T10:23:14;3.97;;;2.13;;
7205;SDS011;3644;53.480;10.004;2023-04-03T10:25:56;2.67;;;1.23;;
7205;SDS011;3644;53.480;10.004;2023-04-03T10:28:57;3.60;;;2.30;;
7205;SDS011;3644;53.480;10.004;2023-04-03T10:31:37;1.57;;;1.47;;
7205;SDS011;3644;53.480;10.004;2023-04-03T10:34:31;1.33;;;1.20;;
7205;SDS011;3644;53.480;10.004;2023-04-03T10:42:55;2.60;;;1.30;;
7205;SDS011;3644;53.480;10.004;2023-04-03T10:45:51;4.20;;;1.63;;
7205;SDS011;3644;53.480;10.004;2023-04-03T10:58:44;1.80;;;1.27;;
7205;SDS011;3644;53.480;10.004;2023-04-03T11:01:18;2.60;;;1.40;;
7205;SDS011;3644;53.480;10.004;2023-04-03T11:03:54;2.30;;;1.70;;
7205;SDS011;3644;53.480;10.004;2023-04-03T11:06:24;2.70;;;1.63;;
7205;SDS011;3644;53.480;10.004;2023-04-03T11:08:57;10.43;;;1.63;;
7205;SDS011;3644;53.480;10.004;2023-04-03T11:11:34;4.90;;;1.33;;
7205;SDS011;3644;53.480;10.004;2023-04-03T11:17:00;1.40;;;1.30;;
7205;SDS011;3644;53.480;10.004;2023-04-03T11:22:32;2.50;;;1.50;;
7205;SDS011;3644;53.480;10.004;2023-04-03T11:25:09;1.50;;;1.40;;
7205;SDS011;3644;53.480;10.004;2023-04-03T11:27:55;2.60;;;1.90;;
7205;SDS011;3644;53.480;10.004;2023-04-03T11:36:10;1.50;;;1.40;;
7205;SDS011;3644;53.480;10.004;2023-04-03T11:38:44;3.60;;;1.73;;
7205;SDS011;3644;53.480;10.004;2023-04-03T11:41:12;9.10;;;1.30;;
7205;SDS011;3644;53.480;10.004;2023-04-03T11:58:02;6.47;;;1.50;;
7205;SDS011;3644;53.480;10.004;2023-04-03T12:05:55;2.00;;;1.40;;
7205;SDS011;3644;53.480;10.004;2023-04-03T12:29:27;2.00;;;1.40;;
7205;SDS011;3644;53.480;10.004;2023-04-03T12:32:12;5.67;;;1.77;;
7205;SDS011;3644;53.480;10.004;2023-04-03T12:46:02;1.23;;;1.10;;
7205;SDS011;3644;53.480;10.004;2023-04-03T12:48:29;12.70;;;1.67;;
7205;SDS011;3644;53.480;10.004;2023-04-03T12:50:56;6.03;;;1.57;;
7205;SDS011;3644;53.480;10.004;2023-04-03T12:53:27;3.10;;;1.73;;
7205;SDS011;3644;53.480;10.004;2023-04-03T12:56:18;2.53;;;1.40;;
7205;SDS011;3644;53.480;10.004;2023-04-03T12:58:49;6.83;;;1.60;;
7205;SDS011;3644;53.480;10.004;2023-04-03T13:01:24;3.53;;;1.40;;
7205;SDS011;3644;53.480;10.004;2023-04-03T13:03:55;1.50;;;1.40;;
7205;SDS011;3644;53.480;10.004;2023-04-03T13:08:50;4.00;;;2.00;;
7205;SDS011;3644;53.480;10.004;2023-04-03T13:11:16;2.37;;;1.50;;
7205;SDS011;3644;53.480;10.004;2023-04-03T13:13:53;5.17;;;2.10;;
7205;SDS011;3644;53.480;10.004;2023-04-03T13:16:23;2.37;;;1.67;;
7205;SDS011;3644;53.480;10.004;2023-04-03T13:18:50;1.43;;;1.33;;
7205;SDS011;3644;53.480;10.004;2023-04-03T13:21:26;2.00;;;1.80;;
7205;SDS011;3644;53.480;10.004;2023-04-03T13:23:58;3.60;;;1.37;;
7205;SDS011;3644;53.480;10.004;2023-04-03T13:26:27;3.37;;;1.40;;
7205;SDS011;3644;53.480;10.004;2023-04-03T13:28:57;8.03;;;1.70;;
7205;SDS011;3644;53.480;10.004;2023-04-03T13:31:35;4.33;;;1.43;;
7205;SDS011;3644;53.480;10.004;2023-04-03T13:34:03;5.03;;;1.83;;
7205;SDS011;3644;53.480;10.004;2023-04-03T13:36:56;2.00;;;1.40;;
7205;SDS011;3644;53.480;10.004;2023-04-03T13:39:25;1.23;;;1.13;;
7205;SDS011;3644;53.480;10.004;2023-04-03T13:41:55;2.63;;;1.50;;
7205;SDS011;3644;53.480;10.004;2023-04-03T13:46:48;1.50;;;1.40;;
7205;SDS011;3644;53.480;10.004;2023-04-03T13:49:22;6.30;;;1.97;;
7205;SDS011;3644;53.480;10.004;2023-04-03T13:51:48;1.20;;;1.10;;
7205;SDS011;3644;53.480;10.004;2023-04-03T13:54:22;2.20;;;1.50;;
7205;SDS011;3644;53.480;10.004;2023-04-03T13:57:00;3.13;;;1.60;;
7205;SDS011;3644;53.480;10.004;2023-04-03T13:59:28;1.53;;;1.40;;
7205;SDS011;3644;53.480;10.004;2023-04-03T14:04:30;4.20;;;1.70;;
7205;SDS011;3644;53.480;10.004;2023-04-03T14:07:08;1.73;;;1.30;;
7205;SDS011;3644;53.480;10.004;2023-04-03T14:09:34;3.40;;;1.30;;
7205;SDS011;3644;53.480;10.004;2023-04-03T14:12:01;7.97;;;1.90;;
7205;SDS011;3644;53.480;10.004;2023-04-03T14:14:33;4.30;;;1.47;;
7205;SDS011;3644;53.480;10.004;2023-04-03T14:17:02;3.90;;;1.60;;
7205;SDS011;3644;53.480;10.004;2023-04-03T14:19:35;2.13;;;1.63;;
7205;SDS011;3644;53.480;10.004;2023-04-03T14:22:05;2.20;;;1.67;;
7205;SDS011;3644;53.480;10.004;2023-04-03T14:24:38;2.20;;;1.90;;
7205;SDS011;3644;53.480;10.004;2023-04-03T14:27:05;1.47;;;1.37;;
7205;SDS011;3644;53.480;10.004;2023-04-03T14:29:41;2.50;;;1.50;;
7205;SDS011;3644;53.480;10.004;2023-04-03T14:32:07;1.23;;;1.10;;
7205;SDS011;3644;53.480;10.004;2023-04-03T14:34:35;2.67;;;1.23;;
7205;SDS011;3644;53.480;10.004;2023-04-03T14:37:01;2.00;;;1.50;;
7205;SDS011;3644;53.480;10.004;2023-04-03T14:39:26;2.30;;;1.77;;
7205;SDS011;3644;53.480;10.004;2023-04-03T14:41:52;2.40;;;1.60;;
7205;SDS011;3644;53.480;10.004;2023-04-03T14:44:17;2.27;;;1.53;;
7205;SDS011;3644;53.480;10.004;2023-04-03T14:46:43;2.57;;;1.77;;
7205;SDS011;3644;53.480;10.004;2023-04-03T14:49:12;1.90;;;1.30;;
7205;SDS011;3644;53.480;10.004;2023-04-03T14:51:40;2.30;;;1.33;;
7205;SDS011;3644;53.480;10.004;2023-04-03T14:54:10;1.87;;;1.50;;
7205;SDS011;3644;53.480;10.004;2023-04-03T14:56:39;3.63;;;1.40;;
7205;SDS011;3644;53.480;10.004;2023-04-03T14:59:05;2.00;;;1.07;;
7205;SDS011;3644;53.480;10.004;2023-04-03T15:01:34;1.77;;;1.33;;
7205;SDS011;3644;53.480;10.004;2023-04-03T15:04:00;1.23;;;1.13;;
7205;SDS011;3644;53.480;10.004;2023-04-03T15:06:25;1.60;;;1.50;;
7205;SDS011;3644;53.480;10.004;2023-04-03T15:08:51;1.47;;;1.37;;
7205;SDS011;3644;53.480;10.004;2023-04-03T15:11:17;3.23;;;1.40;;
7205;SDS011;3644;53.480;10.004;2023-04-03T15:13:42;2.73;;;1.50;;
7205;SDS011;3644;53.480;10.004;2023-04-03T15:16:18;3.07;;;1.93;;
7205;SDS011;3644;53.480;10.004;2023-04-03T15:18:44;1.57;;;1.30;;
7205;SDS011;3644;53.480;10.004;2023-04-03T15:21:10;1.20;;;1.20;;
7205;SDS011;3644;53.480;10.004;2023-04-03T15:23:36;1.90;;;1.00;;
7205;SDS011;3644;53.480;10.004;2023-04-03T15:26:02;3.13;;;1.80;;
7205;SDS011;3644;53.480;10.004;2023-04-03T15:28:38;2.07;;;1.40;;
7205;SDS011;3644;53.480;10.004;2023-04-03T15:31:05;3.07;;;1.17;;
7205;SDS011;3644;53.480;10.004;2023-04-03T15:33:31;2.87;;;1.47;;
7205;SDS011;3644;53.480;10.004;2023-04-03T15:35:58;2.40;;;1.77;;
7205;SDS011;3644;53.480;10.004;2023-04-03T15:38:24;2.00;;;1.37;;
7205;SDS011;3644;53.480;10.004;2023-04-03T15:40:50;2.00;;;1.17;;
7205;SDS011;3644;53.480;10.004;2023-04-03T15:43:16;9.40;;;2.00;;
7205;SDS011;3644;53.480;10.004;2023-04-03T15:45:41;3.80;;;1.77;;
7205;SDS011;3644;53.480;10.004;2023-04-03T15:48:08;3.77;;;1.57;;
7205;SDS011;3644;53.480;10.004;2023-04-03T15:50:34;1.60;;;1.50;;
7205;SDS011;3644;53.480;10.004;2023-04-03T15:53:00;2.27;;;2.07;;
7205;SDS011;3644;53.480;10.004;2023-04-03T15:55:27;3.97;;;1.60;;
7205;SDS011;3644;53.480;10.004;2023-04-03T15:57:54;1.57;;;1.47;;
7205;SDS011;3644;53.480;10.004;2023-04-03T16:00:22;5.10;;;1.90;;
7205;SDS011;3644;53.480;10.004;2023-04-03T16:02:50;3.77;;;1.50;;
7205;SDS011;3644;53.480;10.004;2023-04-03T16:05:20;1.50;;;1.40;;
7205;SDS011;3644;53.480;10.004;2023-04-03T16:07:46;1.97;;;1.50;;
7205;SDS011;3644;53.480;10.004;2023-04-03T16:10:13;1.97;;;1.60;;
7205;SDS011;3644;53.480;10.004;2023-04-03T16:12:40;8.00;;;1.80;;
7205;SDS011;3644;53.480;10.004;2023-04-03T16:15:06;1.57;;;1.40;;
7205;SDS011;3644;53.480;10.004;2023-04-03T16:17:32;2.17;;;1.50;;
7205;SDS011;3644;53.480;10.004;2023-04-03T16:19:59;9.20;;;1.60;;
7205;SDS011;3644;53.480;10.004;2023-04-03T16:22:25;2.20;;;1.77;;
7205;SDS011;3644;53.480;10.004;2023-04-03T16:24:52;10.00;;;1.40;;
7205;SDS011;3644;53.480;10.004;2023-04-03T16:27:18;3.07;;;1.37;;
7205;SDS011;3644;53.480;10.004;2023-04-03T16:29:44;4.43;;;1.50;;
7205;SDS011;3644;53.480;10.004;2023-04-03T16:32:10;3.30;;;1.53;;
7205;SDS011;3644;53.480;10.004;2023-04-03T16:34:36;3.60;;;1.57;;
7205;SDS011;3644;53.480;10.004;2023-04-03T16:37:02;2.73;;;2.13;;
7205;SDS011;3644;53.480;10.004;2023-04-03T16:39:28;4.07;;;1.73;;
7205;SDS011;3644;53.480;10.004;2023-04-03T16:41:53;2.40;;;1.60;;
7205;SDS011;3644;53.480;10.004;2023-04-03T16:44:19;2.10;;;1.53;;
7205;SDS011;3644;53.480;10.004;2023-04-03T16:46:44;3.23;;;1.77;;